createdAt,value
2018-04-16T00:01:24.182Z,8.43
2018-04-16T00:03:53.745Z,9.20
2018-04-16T00:06:23.865Z,7.07
2018-04-16T00:08:53.322Z,6.93
2018-04-16T00:11:23.053Z,7.90
2018-04-16T00:13:54.125Z,7.77
2018-04-16T00:16:23.632Z,6.70
2018-04-16T00:19:00.879Z,6.40
2018-04-16T00:21:33.959Z,6.77
2018-04-16T00:24:03.433Z,6.17
2018-04-16T00:26:34.329Z,6.60
2018-04-16T00:29:05.814Z,6.17
2018-04-16T00:31:40.547Z,6.63
2018-04-16T00:34:15.436Z,8.00
2018-04-16T00:36:50.509Z,7.77
2018-04-16T00:39:25.055Z,6.40
2018-04-16T00:42:03.571Z,6.00
2018-04-16T00:44:38.194Z,6.07
2018-04-16T00:47:12.811Z,6.30
2018-04-16T00:49:47.660Z,5.90
2018-04-16T00:55:06.018Z,6.57
2018-04-16T00:57:41.128Z,7.70
2018-04-16T01:00:16.799Z,7.63
2018-04-16T01:02:55.380Z,7.13
2018-04-16T01:05:31.099Z,7.00
2018-04-16T01:11:27.122Z,7.60
2018-04-16T01:14:01.859Z,8.10
2018-04-16T01:16:36.652Z,8.10
2018-04-16T01:19:11.334Z,8.17
2018-04-16T01:21:48.848Z,8.50
2018-04-16T01:24:23.814Z,8.67
2018-04-16T01:26:58.622Z,8.30
2018-04-16T01:29:35.047Z,8.60
2018-04-16T01:32:09.904Z,7.80
2018-04-16T01:34:45.729Z,8.83
2018-04-16T01:37:20.426Z,8.23
2018-04-16T01:39:55.268Z,8.83
2018-04-16T01:42:30.040Z,8.63
2018-04-16T01:45:04.781Z,8.77
2018-04-16T01:47:39.455Z,9.97
2018-04-16T01:50:14.164Z,9.37
2018-04-16T01:52:48.827Z,9.43
2018-04-16T01:56:01.262Z,10.93
2018-04-16T01:58:36.219Z,9.90
2018-04-16T02:01:10.991Z,10.60
2018-04-16T02:03:46.171Z,10.23
2018-04-16T02:06:21.955Z,9.10
2018-04-16T02:08:56.791Z,10.23
2018-04-16T02:11:31.959Z,9.43
2018-04-16T02:14:06.980Z,9.03
2018-04-16T02:16:43.024Z,9.90
2018-04-16T02:19:19.589Z,9.10
2018-04-16T02:21:54.430Z,9.70
2018-04-16T02:24:29.595Z,9.63
2018-04-16T02:27:04.450Z,10.20
2018-04-16T02:29:39.812Z,9.83
2018-04-16T02:32:14.511Z,8.90
2018-04-16T02:34:49.314Z,9.97
2018-04-16T02:37:24.086Z,8.73
2018-04-16T02:40:00.489Z,8.87
2018-04-16T02:42:36.533Z,8.63
2018-04-16T02:45:11.505Z,8.70
2018-04-16T02:47:49.951Z,8.97
2018-04-16T02:50:24.653Z,8.03
2018-04-16T02:52:59.734Z,8.17
2018-04-16T02:55:34.618Z,8.50
2018-04-16T03:01:40.183Z,8.50
2018-04-16T03:04:49.788Z,7.67
2018-04-16T03:07:24.629Z,6.93
2018-04-16T03:09:59.620Z,6.87
2018-04-16T03:12:45.725Z,6.40
2018-04-16T03:15:20.454Z,6.83
2018-04-16T03:21:31.156Z,5.70
2018-04-16T03:24:06.870Z,7.60
2018-04-16T03:26:43.239Z,6.40
2018-04-16T03:29:18.573Z,5.43
2018-04-16T03:35:15.181Z,5.77
2018-04-16T03:37:53.432Z,5.43
2018-04-16T03:40:32.693Z,5.50
2018-04-16T03:43:07.613Z,4.40
2018-04-16T03:45:42.666Z,4.27
2018-04-16T03:48:17.676Z,3.97
2018-04-16T03:50:52.842Z,3.97
2018-04-16T03:53:37.128Z,3.90
2018-04-16T03:56:07.115Z,3.30
2018-04-16T03:58:36.806Z,4.17
2018-04-16T04:01:06.534Z,3.97
2018-04-16T04:03:36.285Z,3.97
2018-04-16T04:06:06.743Z,4.00
2018-04-16T04:08:36.492Z,4.20
2018-04-16T04:11:06.252Z,3.70
2018-04-16T04:13:36.175Z,3.47
2018-04-16T04:16:06.410Z,3.50
2018-04-16T04:18:41.353Z,3.73
2018-04-16T04:21:11.964Z,3.30
2018-04-16T04:23:53.186Z,3.70
2018-04-16T04:26:34.025Z,3.50
2018-04-16T04:29:14.799Z,3.57
2018-04-16T04:31:44.473Z,3.50
2018-04-16T04:34:14.175Z,3.73
2018-04-16T04:36:43.895Z,3.53
2018-04-16T04:39:13.636Z,3.67
2018-04-16T04:41:43.441Z,4.00
2018-04-16T04:44:13.124Z,3.80
2018-04-16T04:46:42.774Z,3.90
2018-04-16T04:49:12.595Z,3.47
2018-04-16T04:51:42.304Z,3.90
2018-04-16T04:54:12.135Z,3.67
2018-04-16T04:56:41.888Z,3.77
2018-04-16T04:59:11.620Z,3.30
2018-04-16T05:01:41.535Z,2.67
2018-04-16T05:04:11.281Z,2.70
2018-04-16T05:06:41.092Z,3.63
2018-04-16T05:09:10.756Z,3.00
2018-04-16T05:11:46.336Z,2.30
2018-04-16T05:14:17.641Z,2.27
2018-04-16T05:16:48.194Z,2.07
2018-04-16T05:19:17.910Z,2.50
2018-04-16T05:21:48.637Z,2.00
2018-04-16T05:24:18.389Z,1.80
2018-04-16T05:26:48.043Z,1.70
2018-04-16T05:29:17.755Z,1.80
2018-04-16T05:31:47.481Z,1.90
2018-04-16T05:34:17.190Z,2.27
2018-04-16T05:36:46.976Z,1.90
2018-04-16T05:39:16.626Z,2.20
2018-04-16T05:41:46.286Z,2.00
2018-04-16T05:47:46.445Z,2.07
2018-04-16T05:50:16.001Z,2.00
2018-04-16T05:52:45.480Z,1.90
2018-04-16T05:55:15.069Z,1.80
2018-04-16T05:57:44.547Z,2.00
2018-04-16T06:00:14.071Z,2.23
2018-04-16T06:02:43.668Z,1.80
2018-04-16T06:05:13.203Z,1.83
2018-04-16T06:07:42.834Z,1.87
2018-04-16T06:10:12.333Z,1.50
2018-04-16T06:13:06.056Z,2.30
2018-04-16T06:15:35.643Z,2.23
2018-04-16T06:18:05.271Z,2.47
2018-04-16T06:20:34.936Z,2.70
2018-04-16T06:23:04.526Z,2.43
2018-04-16T06:25:34.529Z,2.70
2018-04-16T06:28:04.402Z,2.77
2018-04-16T06:30:34.423Z,2.87
2018-04-16T06:33:05.057Z,2.83
2018-04-16T06:35:34.993Z,3.50
2018-04-16T06:38:05.328Z,3.70
2018-04-16T06:40:35.701Z,2.97
2018-04-16T06:43:05.262Z,3.73
2018-04-16T06:45:35.089Z,3.97
2018-04-16T06:48:04.606Z,3.50
2018-04-16T06:50:34.258Z,3.13
2018-04-16T06:53:04.879Z,4.13
2018-04-16T06:55:34.531Z,3.60
2018-04-16T06:58:04.310Z,4.37
2018-04-16T07:00:33.898Z,5.00
2018-04-16T07:06:35.515Z,3.47
2018-04-16T07:09:05.108Z,4.27
2018-04-16T07:11:34.557Z,4.07
2018-04-16T07:14:04.689Z,4.33
2018-04-16T07:16:34.178Z,4.13
2018-04-16T07:19:03.677Z,4.63
2018-04-16T07:21:33.161Z,3.80
2018-04-16T07:24:02.420Z,3.80
2018-04-16T07:26:31.680Z,4.60
2018-04-16T07:29:01.001Z,4.30
2018-04-16T07:31:30.348Z,5.73
2018-04-16T07:33:59.669Z,4.83
2018-04-16T07:36:29.013Z,4.97
2018-04-16T07:38:58.395Z,5.00
2018-04-16T07:41:27.648Z,4.80
2018-04-16T07:43:57.025Z,4.93
2018-04-16T07:46:26.464Z,4.33
2018-04-16T07:48:56.050Z,3.77
2018-04-16T07:51:25.400Z,3.77
2018-04-16T07:53:54.796Z,3.90
2018-04-16T07:56:24.248Z,4.43
2018-04-16T07:58:53.621Z,3.90
2018-04-16T08:01:22.969Z,4.50
2018-04-16T08:03:52.324Z,5.00
2018-04-16T08:06:22.395Z,4.50
2018-04-16T08:08:51.760Z,4.77
2018-04-16T08:11:21.253Z,5.60
2018-04-16T08:13:51.483Z,6.20
2018-04-16T08:16:21.632Z,6.83
2018-04-16T08:18:51.000Z,7.07
2018-04-16T08:21:21.042Z,5.77
2018-04-16T08:23:50.407Z,7.03
2018-04-16T08:26:19.803Z,6.70
2018-04-16T08:28:49.094Z,5.63
2018-04-16T08:31:18.505Z,5.30
2018-04-16T08:33:47.858Z,4.73
2018-04-16T08:36:17.339Z,5.10
2018-04-16T08:38:47.561Z,5.43
2018-04-16T08:41:17.669Z,5.33
2018-04-16T08:43:47.001Z,5.87
2018-04-16T08:46:16.306Z,8.20
2018-04-16T08:48:45.634Z,9.40
2018-04-16T08:51:14.965Z,9.13
2018-04-16T08:53:44.352Z,7.47
2018-04-16T08:56:13.673Z,6.17
2018-04-16T08:58:43.008Z,5.93
2018-04-16T09:01:12.300Z,5.33
2018-04-16T09:03:41.655Z,5.13
2018-04-16T09:06:10.948Z,4.93
2018-04-16T09:08:40.201Z,5.17
2018-04-16T09:11:09.525Z,5.90
2018-04-16T09:13:38.976Z,4.67
2018-04-16T09:16:08.276Z,4.53
2018-04-16T09:18:37.649Z,5.10
2018-04-16T09:21:06.966Z,4.30
2018-04-16T09:23:36.218Z,4.43
2018-04-16T09:26:05.608Z,5.33
2018-04-16T09:28:35.710Z,5.13
2018-04-16T09:31:05.817Z,5.23
2018-04-16T09:36:55.842Z,5.30
2018-04-16T09:39:25.301Z,5.20
2018-04-16T09:41:55.379Z,5.17
2018-04-16T09:44:24.822Z,5.17
2018-04-16T09:46:54.255Z,5.83
2018-04-16T09:49:23.582Z,6.33
2018-04-16T09:51:53.046Z,6.37
2018-04-16T09:54:22.390Z,5.83
2018-04-16T09:56:51.804Z,6.47
2018-04-16T09:59:21.229Z,6.87
2018-04-16T10:01:51.635Z,5.97
2018-04-16T10:04:21.017Z,5.63
2018-04-16T10:06:50.441Z,6.37
2018-04-16T10:09:19.763Z,6.40
2018-04-16T10:11:49.204Z,6.40
2018-04-16T10:14:18.629Z,5.17
2018-04-16T10:16:47.954Z,5.23
2018-04-16T10:19:17.521Z,5.27
2018-04-16T10:21:46.886Z,4.87
2018-04-16T10:24:16.476Z,4.90
2018-04-16T10:26:45.882Z,4.93
2018-04-16T10:29:15.368Z,4.47
2018-04-16T10:35:15.878Z,6.13
2018-04-16T10:37:45.243Z,6.07
2018-04-16T10:40:14.688Z,6.40
2018-04-16T10:42:44.080Z,5.87
2018-04-16T10:45:13.500Z,6.57
2018-04-16T10:47:42.883Z,5.33
2018-04-16T10:50:12.522Z,5.97
2018-04-16T10:52:41.978Z,5.97
2018-04-16T10:55:11.451Z,6.07
2018-04-16T10:57:41.829Z,5.70
2018-04-16T11:00:11.252Z,5.23
2018-04-16T11:02:40.569Z,5.67
2018-04-16T11:05:10.201Z,6.70
2018-04-16T11:07:39.546Z,7.47
2018-04-16T11:10:08.919Z,6.60
2018-04-16T11:12:38.385Z,6.47
2018-04-16T11:15:07.873Z,6.27
2018-04-16T11:17:37.302Z,5.93
2018-04-16T11:20:07.782Z,6.80
2018-04-16T11:22:37.129Z,7.70
2018-04-16T11:25:06.543Z,6.87
2018-04-16T11:27:37.096Z,6.27
2018-04-16T11:30:07.821Z,8.63
2018-04-16T11:32:37.226Z,8.83
2018-04-16T11:35:06.682Z,9.37
2018-04-16T11:37:36.220Z,9.37
2018-04-16T11:40:06.664Z,9.03
2018-04-16T11:42:35.996Z,5.80
2018-04-16T11:45:05.414Z,8.53
2018-04-16T11:47:34.873Z,7.63
2018-04-16T11:50:04.226Z,8.10
2018-04-16T11:52:33.870Z,8.50
2018-04-16T11:55:04.157Z,7.83
2018-04-16T11:57:33.579Z,7.07
2018-04-16T12:00:03.067Z,7.53
2018-04-16T12:02:33.108Z,8.83
2018-04-16T12:05:02.756Z,6.87
2018-04-16T12:07:32.080Z,5.93
2018-04-16T12:10:01.564Z,6.17
2018-04-16T12:12:30.902Z,6.80
2018-04-16T12:15:00.438Z,6.33
2018-04-16T12:17:29.812Z,6.53
2018-04-16T12:20:00.397Z,7.90
2018-04-16T12:22:29.781Z,8.23
2018-04-16T12:24:59.969Z,8.97
2018-04-16T12:27:29.295Z,10.73
2018-04-16T12:29:59.515Z,10.27
2018-04-16T12:32:29.800Z,10.27
2018-04-16T12:34:59.178Z,10.40
2018-04-16T12:37:28.614Z,10.17
2018-04-16T12:39:57.944Z,14.93
2018-04-16T12:42:27.441Z,12.37
2018-04-16T12:44:56.761Z,15.50
2018-04-16T12:47:26.196Z,12.73
2018-04-16T12:49:55.576Z,11.70
2018-04-16T12:52:25.048Z,11.97
2018-04-16T12:54:54.707Z,12.10
2018-04-16T12:57:24.226Z,10.90
2018-04-16T12:59:53.566Z,10.90
2018-04-16T13:02:22.993Z,10.10
2018-04-16T13:04:52.624Z,13.53
2018-04-16T13:07:22.284Z,10.23
2018-04-16T13:09:52.297Z,10.27
2018-04-16T13:12:21.796Z,11.60
2018-04-16T13:14:51.118Z,9.20
2018-04-16T13:17:20.533Z,10.13
2018-04-16T13:19:50.676Z,10.40
2018-04-16T13:22:21.621Z,14.10
2018-04-16T13:24:51.987Z,14.57
2018-04-16T13:27:22.105Z,14.00
2018-04-16T13:29:53.165Z,14.03
2018-04-16T13:32:23.380Z,13.53
2018-04-16T13:34:52.879Z,12.37
2018-04-16T13:37:22.960Z,9.30
2018-04-16T13:39:53.666Z,10.80
2018-04-16T13:42:23.064Z,10.53
2018-04-16T13:44:52.534Z,9.20
2018-04-16T13:47:22.010Z,9.10
2018-04-16T13:49:51.483Z,7.90
2018-04-16T13:52:21.647Z,7.97
2018-04-16T13:54:54.058Z,9.80
2018-04-16T13:57:26.207Z,10.37
2018-04-16T13:59:57.311Z,9.63
2018-04-16T14:02:28.649Z,8.57
2018-04-16T14:05:00.508Z,8.13
2018-04-16T14:07:31.761Z,8.60
2018-04-16T14:10:04.317Z,8.00
2018-04-16T14:15:16.957Z,6.50
2018-04-16T14:17:49.773Z,7.60
2018-04-16T14:20:20.036Z,6.90
2018-04-16T14:22:49.439Z,7.93
2018-04-16T14:25:20.105Z,7.93
2018-04-16T14:27:49.832Z,7.97
2018-04-16T14:30:19.961Z,7.03
2018-04-16T14:32:53.169Z,6.53
2018-04-16T14:35:23.612Z,6.53
2018-04-16T14:37:54.941Z,6.83
2018-04-16T14:40:24.440Z,6.50
2018-04-16T14:42:58.333Z,6.33
2018-04-16T14:45:33.539Z,6.50
2018-04-16T14:48:03.640Z,5.20
2018-04-16T14:50:35.749Z,6.10
2018-04-16T14:53:06.884Z,6.80
2018-04-16T14:55:37.332Z,7.00
2018-04-16T14:58:08.379Z,8.30
2018-04-16T15:00:56.668Z,8.77
2018-04-16T15:03:27.291Z,10.00
2018-04-16T15:05:57.912Z,12.10
2018-04-16T15:08:30.669Z,20.50
2018-04-16T15:11:01.072Z,9.97
2018-04-16T15:13:36.961Z,7.37
2018-04-16T15:16:07.153Z,8.47
2018-04-16T15:18:41.013Z,8.83
2018-04-16T15:21:11.079Z,9.00
2018-04-16T15:23:40.516Z,6.93
2018-04-16T15:26:10.788Z,6.27
2018-04-16T15:28:40.697Z,6.20
2018-04-16T15:31:10.296Z,6.63
2018-04-16T15:37:01.582Z,6.47
2018-04-16T15:39:34.952Z,6.53
2018-04-16T15:42:04.664Z,7.10
2018-04-16T15:44:34.064Z,6.77
2018-04-16T15:47:17.734Z,6.23
2018-04-16T15:53:09.777Z,7.10
2018-04-16T15:55:39.191Z,6.40
2018-04-16T15:58:10.306Z,7.20
2018-04-16T16:00:39.689Z,7.80
2018-04-16T16:03:10.563Z,6.33
2018-04-16T16:05:39.986Z,6.10
2018-04-16T16:08:10.410Z,8.90
2018-04-16T16:10:41.950Z,6.23
2018-04-16T16:13:15.151Z,6.73
2018-04-16T16:15:45.576Z,6.53
2018-04-16T16:18:16.154Z,7.30
2018-04-16T16:20:45.671Z,6.53
2018-04-16T16:26:38.065Z,6.60
2018-04-16T16:29:07.819Z,7.43
2018-04-16T16:31:38.289Z,7.00
2018-04-16T16:34:07.801Z,7.67
2018-04-16T16:36:43.831Z,8.30
2018-04-16T16:39:13.380Z,7.63
2018-04-16T16:41:49.628Z,8.20
2018-04-16T16:44:21.902Z,10.93
2018-04-16T16:46:52.840Z,7.53
2018-04-16T16:52:36.757Z,6.80
2018-04-16T16:55:21.673Z,7.03
2018-04-16T16:57:56.566Z,6.70
2018-04-16T17:00:28.888Z,7.80
2018-04-16T17:03:02.158Z,9.27
2018-04-16T17:05:35.866Z,9.47
2018-04-16T17:08:09.219Z,10.73
2018-04-16T17:13:56.568Z,8.93
2018-04-16T17:16:26.372Z,10.63
2018-04-16T17:18:58.127Z,9.10
2018-04-16T17:21:28.503Z,10.00
2018-04-16T17:23:58.773Z,9.27
2018-04-16T17:26:28.338Z,9.47
2018-04-16T17:28:57.883Z,7.80
2018-04-16T17:31:27.560Z,10.40
2018-04-16T17:33:57.107Z,8.60
2018-04-16T17:36:27.037Z,9.93
2018-04-16T17:38:56.620Z,10.27
2018-04-16T17:41:27.647Z,8.97
2018-04-16T17:43:57.175Z,8.30
2018-04-16T17:46:26.717Z,8.20
2018-04-16T17:48:56.841Z,8.67
2018-04-16T17:51:26.281Z,7.67
2018-04-16T17:53:55.928Z,9.43
2018-04-16T17:56:25.402Z,10.70
2018-04-16T17:58:55.337Z,14.97
2018-04-16T18:01:25.833Z,8.90
2018-04-16T18:03:55.304Z,10.60
2018-04-16T18:06:24.850Z,9.87
2018-04-16T18:08:54.536Z,9.10
2018-04-16T18:11:24.040Z,10.50
2018-04-16T18:13:53.585Z,14.83
2018-04-16T18:16:23.245Z,15.40
2018-04-16T18:18:52.701Z,10.13
2018-04-16T18:21:23.350Z,11.77
2018-04-16T18:23:53.769Z,10.73
2018-04-16T18:26:23.226Z,9.87
2018-04-16T18:29:28.648Z,11.07
2018-04-16T18:31:58.226Z,12.13
2018-04-16T18:34:27.822Z,11.53
2018-04-16T18:36:57.186Z,10.97
2018-04-16T18:39:26.866Z,10.57
2018-04-16T18:41:56.461Z,11.13
2018-04-16T18:44:26.701Z,9.93
2018-04-16T18:46:56.258Z,10.17
2018-04-16T18:49:25.708Z,9.60
2018-04-16T18:51:55.489Z,13.73
2018-04-16T18:54:26.862Z,12.40
2018-04-16T18:59:33.274Z,12.33
2018-04-16T19:02:13.595Z,10.83
2018-04-16T19:04:47.118Z,12.87
2018-04-16T19:07:24.728Z,10.63
2018-04-16T19:09:54.275Z,11.33
2018-04-16T19:12:24.532Z,11.43
2018-04-16T19:14:54.766Z,10.77
2018-04-16T19:17:24.991Z,11.80
2018-04-16T19:19:54.404Z,13.33
2018-04-16T19:22:24.817Z,9.80
2018-04-16T19:24:56.029Z,11.30
2018-04-16T19:27:31.963Z,12.03
2018-04-16T19:30:02.106Z,8.83
2018-04-16T19:32:37.013Z,9.43
2018-04-16T19:35:08.578Z,9.37
2018-04-16T19:37:37.947Z,9.93
2018-04-16T19:40:07.347Z,8.90
2018-04-16T19:45:59.373Z,10.60
2018-04-16T19:48:34.887Z,12.87
2018-04-16T19:51:05.937Z,12.67
2018-04-16T19:53:36.132Z,13.67
2018-04-16T19:56:11.059Z,14.00
2018-04-16T19:58:41.017Z,15.77
2018-04-16T20:01:10.833Z,10.63
2018-04-16T20:03:46.668Z,12.93
2018-04-16T20:06:20.452Z,9.60
2018-04-16T20:08:50.644Z,11.00
2018-04-16T20:11:20.329Z,17.23
2018-04-16T20:13:53.404Z,15.27
2018-04-16T20:16:26.775Z,11.60
2018-04-16T20:19:00.625Z,15.00
2018-04-16T20:21:36.208Z,13.10
2018-04-16T20:24:11.508Z,15.53
2018-04-16T20:26:54.137Z,15.83
2018-04-16T20:29:23.960Z,14.83
2018-04-16T20:31:53.590Z,12.87
2018-04-16T20:34:23.144Z,8.80
2018-04-16T20:36:55.113Z,9.33
2018-04-16T20:39:26.972Z,9.53
2018-04-16T20:41:56.741Z,8.90
2018-04-16T20:44:27.386Z,8.90
2018-04-16T20:46:57.284Z,8.47
2018-04-16T20:49:27.484Z,9.20
2018-04-16T20:51:58.061Z,10.07
2018-04-16T20:54:27.669Z,10.73
2018-04-16T20:56:57.849Z,11.23
2018-04-16T20:59:27.564Z,9.93
2018-04-16T21:01:57.297Z,8.77
2018-04-16T21:04:27.817Z,9.80
2018-04-16T21:07:00.459Z,9.83
2018-04-16T21:09:32.878Z,8.67
2018-04-16T21:12:05.225Z,8.47
2018-04-16T21:14:37.509Z,9.20
2018-04-16T21:17:08.925Z,10.17
2018-04-16T21:19:42.029Z,7.90
2018-04-16T21:22:17.308Z,6.50
2018-04-16T21:27:27.981Z,8.33
2018-04-16T21:30:01.920Z,7.67
2018-04-16T21:32:37.853Z,7.40
2018-04-16T21:35:12.885Z,9.10
2018-04-16T21:37:43.832Z,8.03
2018-04-16T21:40:16.957Z,7.67
2018-04-16T21:42:51.918Z,7.90
2018-04-16T21:45:25.307Z,7.77
2018-04-16T21:48:00.716Z,7.47
2018-04-16T21:51:11.450Z,11.33
2018-04-16T21:53:41.901Z,12.80
2018-04-16T21:56:13.797Z,9.43
2018-04-16T21:58:43.433Z,8.83
2018-04-16T22:01:12.941Z,8.97
2018-04-16T22:03:42.533Z,11.43
2018-04-16T22:06:12.001Z,10.30
2018-04-16T22:08:41.949Z,9.23
2018-04-16T22:11:13.324Z,9.13
2018-04-16T22:13:42.933Z,9.30
2018-04-16T22:16:14.261Z,9.53
2018-04-16T22:18:43.847Z,9.57
2018-04-16T22:21:13.386Z,8.97
2018-04-16T22:23:43.046Z,9.47
2018-04-16T22:26:12.925Z,9.03
2018-04-16T22:28:43.454Z,8.37
2018-04-16T22:31:13.866Z,8.10
2018-04-16T22:33:43.677Z,8.67
2018-04-16T22:36:13.359Z,8.37
2018-04-16T22:38:43.407Z,9.10
2018-04-16T22:41:14.460Z,9.27
2018-04-16T22:43:44.069Z,9.67
2018-04-16T22:46:13.643Z,9.63
2018-04-16T22:48:44.196Z,9.97
2018-04-16T22:51:13.912Z,11.33
2018-04-16T22:53:45.326Z,11.03
2018-04-16T22:56:14.865Z,9.90
2018-04-16T22:58:44.363Z,11.90
2018-04-16T23:01:15.331Z,16.17
2018-04-16T23:03:47.273Z,14.80
2018-04-16T23:06:21.504Z,15.27
2018-04-16T23:08:51.654Z,16.03
2018-04-16T23:11:21.177Z,13.57
2018-04-16T23:13:50.718Z,13.50
2018-04-16T23:16:20.206Z,11.97
2018-04-16T23:18:49.982Z,12.13
2018-04-16T23:21:19.560Z,12.47
2018-04-16T23:23:51.784Z,13.97
2018-04-16T23:26:22.128Z,11.37
2018-04-16T23:32:13.413Z,13.87
2018-04-16T23:34:43.396Z,11.97
2018-04-16T23:37:12.693Z,12.43
2018-04-16T23:39:42.024Z,11.87
2018-04-16T23:42:11.277Z,14.03
2018-04-16T23:44:40.624Z,10.53
2018-04-16T23:47:09.881Z,11.20
2018-04-16T23:49:39.321Z,11.83
2018-04-16T23:52:08.822Z,11.80
2018-04-16T23:54:38.834Z,10.97
2018-04-16T23:57:08.096Z,13.07
2018-04-16T23:59:40.670Z,11.70
